createdAt,value
2023-04-28T00:00:04.803Z,6.94
2023-04-28T00:02:31.938Z,6.98
2023-04-28T00:04:58.744Z,7.09
2023-04-28T00:07:25.491Z,7.11
2023-04-28T00:09:52.224Z,7.15
2023-04-28T00:12:18.810Z,7.14
2023-04-28T00:14:45.620Z,7.09
2023-04-28T00:17:12.180Z,7.06
2023-04-28T00:19:39.020Z,7.01
2023-04-28T00:22:06.301Z,6.95
2023-04-28T00:24:33.836Z,6.92
2023-04-28T00:27:01.484Z,6.87
2023-04-28T00:29:29.939Z,6.84
2023-04-28T00:31:56.646Z,6.79
2023-04-28T00:34:23.392Z,6.79
2023-04-28T00:36:50.049Z,6.83
2023-04-28T00:39:18.489Z,6.92
2023-04-28T00:41:45.209Z,7.01
2023-04-28T00:44:12.466Z,7.04
2023-04-28T00:46:39.588Z,7.09
2023-04-28T00:49:06.567Z,7.11
2023-04-28T00:51:33.886Z,7.15
2023-04-28T00:54:01.223Z,7.20
2023-04-28T00:56:31.007Z,7.25
2023-04-28T00:58:58.262Z,7.19
2023-04-28T01:01:25.377Z,7.19
2023-04-28T01:03:52.722Z,7.22
2023-04-28T01:06:20.454Z,7.21
2023-04-28T01:08:50.097Z,7.25
2023-04-28T01:11:17.879Z,7.29
2023-04-28T01:14:06.916Z,7.28
2023-04-28T01:16:38.421Z,7.28
2023-04-28T01:19:08.455Z,7.28
2023-04-28T01:21:37.815Z,7.25
2023-04-28T01:24:17.458Z,7.26
2023-04-28T01:26:45.504Z,7.23
2023-04-28T01:29:12.374Z,7.23
2023-04-28T01:31:39.355Z,7.26
2023-04-28T01:34:06.049Z,7.23
2023-04-28T01:36:34.205Z,7.24
2023-04-28T01:39:02.937Z,7.26
2023-04-28T01:41:29.582Z,7.26
2023-04-28T01:43:56.986Z,7.29
2023-04-28T01:46:25.132Z,7.26
2023-04-28T01:48:52.034Z,7.29
2023-04-28T01:51:18.890Z,7.26
2023-04-28T01:53:45.550Z,7.24
2023-04-28T01:56:12.649Z,7.45
2023-04-28T01:58:39.272Z,7.46
2023-04-28T02:01:07.056Z,7.40
2023-04-28T02:03:34.163Z,7.39
2023-04-28T02:06:02.827Z,7.42
2023-04-28T02:08:29.512Z,7.39
2023-04-28T02:10:58.087Z,7.38
2023-04-28T02:13:24.636Z,7.33
2023-04-28T02:15:53.111Z,7.37
2023-04-28T02:18:21.030Z,7.37
2023-04-28T02:20:47.658Z,7.42
2023-04-28T02:23:14.180Z,7.41
2023-04-28T02:25:40.882Z,7.36
2023-04-28T02:28:07.504Z,7.31
2023-04-28T02:30:34.893Z,7.28
2023-04-28T02:33:01.562Z,7.27
2023-04-28T02:35:28.331Z,7.25
2023-04-28T02:37:55.144Z,7.24
2023-04-28T02:40:22.100Z,7.30
2023-04-28T02:42:48.756Z,7.33
2023-04-28T02:45:15.552Z,7.36
2023-04-28T02:47:42.251Z,7.39
2023-04-28T02:50:09.236Z,7.36
2023-04-28T02:52:35.870Z,7.38
2023-04-28T02:55:03.891Z,7.36
2023-04-28T02:57:31.006Z,7.38
2023-04-28T02:59:57.778Z,7.40
2023-04-28T03:02:26.768Z,7.42
2023-04-28T03:04:53.515Z,7.49
2023-04-28T03:07:20.275Z,7.49
2023-04-28T03:09:46.862Z,7.53
2023-04-28T03:12:13.433Z,7.52
2023-04-28T03:14:40.220Z,7.54
2023-04-28T03:17:07.540Z,7.57
2023-04-28T03:19:34.188Z,7.54
2023-04-28T03:22:00.980Z,7.56
2023-04-28T03:24:27.662Z,7.55
2023-04-28T03:26:54.228Z,7.53
2023-04-28T03:29:21.205Z,7.58
2023-04-28T03:31:47.921Z,7.53
2023-04-28T03:34:14.777Z,7.51
2023-04-28T03:36:41.806Z,7.54
2023-04-28T03:39:16.487Z,7.57
2023-04-28T03:41:43.160Z,7.65
2023-04-28T03:44:32.468Z,7.58
2023-04-28T03:46:59.136Z,7.63
2023-04-28T03:49:25.807Z,7.68
2023-04-28T03:51:52.667Z,7.69
2023-04-28T03:54:19.907Z,7.61
2023-04-28T03:56:46.713Z,7.64
2023-04-28T03:59:13.902Z,7.65
2023-04-28T04:01:40.625Z,7.63
2023-04-28T04:04:07.591Z,7.42
2023-04-28T04:06:34.785Z,7.34
2023-04-28T04:09:01.928Z,7.31
2023-04-28T04:11:28.580Z,7.31
2023-04-28T04:13:55.279Z,7.29
2023-04-28T04:16:24.229Z,7.33
2023-04-28T04:18:53.264Z,7.42
2023-04-28T04:21:23.131Z,7.46
2023-04-28T04:23:51.258Z,7.51
2023-04-28T04:26:17.828Z,7.47
2023-04-28T04:28:44.633Z,7.54
2023-04-28T04:31:11.299Z,7.62
2023-04-28T04:33:37.953Z,7.66
2023-04-28T04:36:06.672Z,7.73
2023-04-28T04:38:33.502Z,7.71
2023-04-28T04:41:09.562Z,7.70
2023-04-28T04:43:36.380Z,7.76
2023-04-28T04:46:04.108Z,7.80
2023-04-28T04:48:32.260Z,7.81
2023-04-28T04:50:58.987Z,7.78
2023-04-28T04:53:26.244Z,7.74
2023-04-28T04:55:55.287Z,7.73
2023-04-28T04:58:22.027Z,7.77
2023-04-28T05:01:23.879Z,7.79
2023-04-28T05:03:50.855Z,7.85
2023-04-28T05:06:17.604Z,7.91
2023-04-28T05:08:46.696Z,7.87
2023-04-28T05:11:13.508Z,7.78
2023-04-28T05:13:40.830Z,7.84
2023-04-28T05:16:08.116Z,7.90
2023-04-28T05:18:48.429Z,7.96
2023-04-28T05:21:15.854Z,8.03
2023-04-28T05:23:42.529Z,8.10
2023-04-28T05:26:09.409Z,8.21
2023-04-28T05:28:36.406Z,8.34
2023-04-28T05:31:03.107Z,8.66
2023-04-28T05:33:31.420Z,8.73
2023-04-28T05:35:58.460Z,8.78
2023-04-28T05:38:25.807Z,8.73
2023-04-28T05:40:53.309Z,8.99
2023-04-28T05:43:20.203Z,9.10
2023-04-28T05:45:48.392Z,9.10
2023-04-28T05:48:15.086Z,9.16
2023-04-28T05:50:41.834Z,9.25
2023-04-28T05:53:10.140Z,9.33
2023-04-28T05:55:37.026Z,9.42
2023-04-28T05:58:04.283Z,9.55
2023-04-28T06:00:31.512Z,9.70
2023-04-28T06:03:00.472Z,9.79
2023-04-28T06:05:27.839Z,9.86
2023-04-28T06:07:56.164Z,9.92
2023-04-28T06:10:23.810Z,9.79
2023-04-28T06:12:50.580Z,9.76
2023-04-28T06:15:17.159Z,9.72
2023-04-28T06:17:43.877Z,9.72
2023-04-28T06:20:13.187Z,9.72
2023-04-28T06:22:41.383Z,9.83
2023-04-28T06:25:08.740Z,9.77
2023-04-28T06:27:42.071Z,9.69
2023-04-28T06:30:09.301Z,9.70
2023-04-28T06:32:36.015Z,9.81
2023-04-28T06:35:02.851Z,9.71
2023-04-28T06:37:29.556Z,9.81
2023-04-28T06:39:58.102Z,9.73
2023-04-28T06:42:26.024Z,9.86
2023-04-28T06:44:59.944Z,9.91
2023-04-28T06:47:27.870Z,9.93
2023-04-28T06:49:54.706Z,10.07
2023-04-28T06:52:33.449Z,10.08
2023-04-28T06:55:12.300Z,10.21
2023-04-28T06:57:39.099Z,10.35
2023-04-28T07:00:06.466Z,10.49
2023-04-28T07:02:33.469Z,10.57
2023-04-28T07:05:00.256Z,10.59
2023-04-28T07:07:27.003Z,10.65
2023-04-28T07:09:53.814Z,10.64
2023-04-28T07:12:22.314Z,10.62
2023-04-28T07:14:50.643Z,10.68
2023-04-28T07:17:17.626Z,10.75
2023-04-28T07:19:44.347Z,10.68
2023-04-28T07:22:11.194Z,10.74
2023-04-28T07:24:37.754Z,10.87
2023-04-28T07:27:04.529Z,10.84
2023-04-28T07:29:34.102Z,10.85
2023-04-28T07:32:06.862Z,10.92
2023-04-28T07:34:35.824Z,10.94
2023-04-28T07:37:03.658Z,11.05
2023-04-28T07:39:36.841Z,11.00
2023-04-28T07:42:03.767Z,11.07
2023-04-28T07:44:31.369Z,10.93
2023-04-28T07:47:00.212Z,10.96
2023-04-28T07:49:28.666Z,11.02
2023-04-28T07:51:56.501Z,11.02
2023-04-28T07:54:23.279Z,10.97
2023-04-28T07:56:50.348Z,10.90
2023-04-28T07:59:16.888Z,10.94
2023-04-28T08:01:43.669Z,10.99
2023-04-28T08:04:11.762Z,11.02
2023-04-28T08:06:40.051Z,10.95
2023-04-28T08:09:07.044Z,10.94
2023-04-28T08:11:34.941Z,10.96
2023-04-28T08:14:03.416Z,10.93
2023-04-28T08:16:31.424Z,10.87
2023-04-28T08:18:59.047Z,10.88
2023-04-28T08:21:27.131Z,10.80
2023-04-28T08:23:54.021Z,10.87
2023-04-28T08:26:20.644Z,10.85
2023-04-28T08:28:47.403Z,10.97
2023-04-28T08:31:14.234Z,10.98
2023-04-28T08:33:44.308Z,10.89
2023-04-28T08:36:12.182Z,10.96
2023-04-28T08:38:39.386Z,11.00
2023-04-28T08:41:06.084Z,11.07
2023-04-28T08:43:36.547Z,11.14
2023-04-28T08:46:07.332Z,11.17
2023-04-28T08:48:41.163Z,11.12
2023-04-28T08:51:08.316Z,11.27
2023-04-28T08:54:06.147Z,11.17
2023-04-28T08:56:31.799Z,11.17
2023-04-28T08:59:05.012Z,11.03
2023-04-28T09:01:32.229Z,10.97
2023-04-28T09:04:02.556Z,10.93
2023-04-28T09:06:37.300Z,10.99
2023-04-28T09:09:25.525Z,10.82
2023-04-28T09:11:52.571Z,10.79
2023-04-28T09:14:19.412Z,10.77
2023-04-28T09:16:46.538Z,10.61
2023-04-28T09:19:13.155Z,10.65
2023-04-28T09:22:05.591Z,10.64
2023-04-28T09:24:43.240Z,10.70
2023-04-28T09:27:11.892Z,10.61
2023-04-28T09:29:39.328Z,10.44
2023-04-28T09:32:19.593Z,10.58
2023-04-28T09:34:54.231Z,10.57
2023-04-28T09:37:22.888Z,10.58
2023-04-28T09:39:51.892Z,10.51
2023-04-28T09:42:34.883Z,10.50
2023-04-28T09:45:03.339Z,10.43
2023-04-28T09:47:34.998Z,10.26
2023-04-28T09:50:06.590Z,10.30
2023-04-28T09:52:35.071Z,10.19
2023-04-28T09:55:04.319Z,10.20
2023-04-28T09:57:33.054Z,10.18
2023-04-28T10:00:00.476Z,10.32
2023-04-28T10:04:58.170Z,10.26
2023-04-28T10:07:26.701Z,10.34
2023-04-28T10:09:56.463Z,10.26
2023-04-28T10:12:24.633Z,10.37
2023-04-28T10:14:54.837Z,10.33
2023-04-28T10:17:22.766Z,10.25
2023-04-28T10:19:52.191Z,10.26
2023-04-28T10:22:22.647Z,10.29
2023-04-28T10:25:01.701Z,10.31
2023-04-28T10:27:32.020Z,10.39
2023-04-28T10:30:26.270Z,10.41
2023-04-28T10:33:06.695Z,10.54
2023-04-28T10:35:36.249Z,10.59
2023-04-28T10:38:10.279Z,10.73
2023-04-28T10:40:38.664Z,10.79
2023-04-28T10:43:06.427Z,10.90
2023-04-28T10:45:56.765Z,10.92
2023-04-28T10:48:47.324Z,10.96
2023-04-28T10:51:17.011Z,11.02
2023-04-28T10:53:47.497Z,11.01
2023-04-28T10:56:16.955Z,11.04
2023-04-28T10:58:46.339Z,11.01
2023-04-28T11:01:19.541Z,10.90
2023-04-28T11:03:46.769Z,11.00
2023-04-28T11:06:28.257Z,11.01
2023-04-28T11:09:03.927Z,11.05
2023-04-28T11:11:34.720Z,11.01
2023-04-28T11:14:19.604Z,10.97
2023-04-28T11:16:54.164Z,10.89
2023-04-28T11:19:24.960Z,10.83
2023-04-28T11:21:52.941Z,10.79
2023-04-28T11:24:19.963Z,10.76
2023-04-28T11:26:46.931Z,10.88
2023-04-28T11:29:15.001Z,10.86
2023-04-28T11:31:51.380Z,10.94
2023-04-28T11:34:22.193Z,10.89
2023-04-28T11:36:48.884Z,11.17
2023-04-28T11:39:15.619Z,11.41
2023-04-28T11:41:44.129Z,11.39
2023-04-28T11:44:21.868Z,11.47
2023-04-28T11:46:51.727Z,11.60
2023-04-28T11:49:19.125Z,11.78
2023-04-28T11:51:48.651Z,11.73
2023-04-28T11:54:21.013Z,11.90
2023-04-28T11:56:48.198Z,12.05
2023-04-28T11:59:15.232Z,12.12
2023-04-28T12:01:47.392Z,12.17
2023-04-28T12:04:14.861Z,12.13
2023-04-28T12:06:41.891Z,12.08
2023-04-28T12:09:25.050Z,11.99
2023-04-28T12:11:57.650Z,11.92
2023-04-28T12:14:25.705Z,11.91
2023-04-28T12:16:53.254Z,11.87
2023-04-28T12:19:20.342Z,11.87
2023-04-28T12:22:01.368Z,11.91
2023-04-28T12:24:28.769Z,11.86
2023-04-28T12:27:14.867Z,11.85
2023-04-28T12:29:42.572Z,11.91
2023-04-28T12:32:10.966Z,12.02
2023-04-28T12:34:39.866Z,12.05
2023-04-28T12:37:07.262Z,11.94
2023-04-28T12:39:39.705Z,12.01
2023-04-28T12:42:06.926Z,12.07
2023-04-28T12:44:37.747Z,12.00
2023-04-28T12:47:07.512Z,12.10
2023-04-28T12:49:35.690Z,12.15
2023-04-28T12:52:03.987Z,12.38
2023-04-28T12:54:31.241Z,12.40
2023-04-28T12:56:57.976Z,12.50
2023-04-28T12:59:24.968Z,12.53
2023-04-28T13:01:51.613Z,12.56
2023-04-28T13:04:19.533Z,12.63
2023-04-28T13:06:46.549Z,12.84
2023-04-28T13:09:15.264Z,12.97
2023-04-28T13:11:42.752Z,12.92
2023-04-28T13:14:09.914Z,12.98
2023-04-28T13:16:36.593Z,12.93
2023-04-28T13:19:09.360Z,13.26
2023-04-28T13:21:39.385Z,13.13
2023-04-28T13:24:06.257Z,13.01
2023-04-28T13:26:33.264Z,13.16
2023-04-28T13:29:00.819Z,13.16
2023-04-28T13:31:28.713Z,13.02
2023-04-28T13:33:55.337Z,13.08
2023-04-28T13:36:22.505Z,13.14
2023-04-28T13:38:49.863Z,13.28
2023-04-28T13:41:17.427Z,13.39
2023-04-28T13:43:44.838Z,13.32
2023-04-28T13:46:11.720Z,13.32
2023-04-28T13:48:39.327Z,13.43
2023-04-28T13:51:07.347Z,13.52
2023-04-28T13:53:35.275Z,13.60
2023-04-28T13:56:02.305Z,13.61
2023-04-28T13:58:30.046Z,13.43
2023-04-28T14:00:57.247Z,13.22
2023-04-28T14:03:24.562Z,13.23
2023-04-28T14:05:52.492Z,13.24
2023-04-28T14:08:20.725Z,13.25
2023-04-28T14:10:48.321Z,13.18
2023-04-28T14:13:15.459Z,13.25
2023-04-28T14:15:54.736Z,13.43
2023-04-28T14:18:24.408Z,13.24
2023-04-28T14:20:51.396Z,13.43
2023-04-28T14:23:18.328Z,13.50
2023-04-28T14:25:45.230Z,13.50
2023-04-28T14:28:12.243Z,13.45
2023-04-28T14:30:38.932Z,13.26
2023-04-28T14:33:05.635Z,13.19
2023-04-28T14:35:32.500Z,13.17
2023-04-28T14:37:59.207Z,13.20
2023-04-28T14:40:26.228Z,13.20
2023-04-28T14:42:53.036Z,13.01
2023-04-28T14:45:20.102Z,13.02
2023-04-28T14:47:47.524Z,13.13
2023-04-28T14:50:14.414Z,13.17
2023-04-28T14:52:41.265Z,13.08
2023-04-28T14:55:08.975Z,13.15
2023-04-28T14:57:35.648Z,13.15
2023-04-28T15:00:03.740Z,13.09
2023-04-28T15:02:30.680Z,13.01
2023-04-28T15:04:58.293Z,13.04
2023-04-28T15:07:31.005Z,13.00
2023-04-28T15:10:00.984Z,13.01
2023-04-28T15:12:30.415Z,12.88
2023-04-28T15:14:58.328Z,12.84
2023-04-28T15:17:25.462Z,12.77
2023-04-28T15:19:52.312Z,12.72
2023-04-28T15:22:19.344Z,12.73
2023-04-28T15:24:46.282Z,12.77
2023-04-28T15:27:13.259Z,12.69
2023-04-28T15:29:40.028Z,12.64
2023-04-28T15:32:07.017Z,12.66
2023-04-28T15:34:34.054Z,12.68
2023-04-28T15:37:01.545Z,12.77
2023-04-28T15:39:28.479Z,12.82
2023-04-28T15:41:56.330Z,12.83
2023-04-28T15:44:23.182Z,12.90
2023-04-28T15:46:52.395Z,12.99
2023-04-28T15:49:18.961Z,12.95
2023-04-28T15:51:45.752Z,12.97
2023-04-28T15:54:12.812Z,12.93
2023-04-28T15:56:40.021Z,12.89
2023-04-28T15:59:06.789Z,12.85
2023-04-28T16:01:33.366Z,12.95
2023-04-28T16:04:00.413Z,12.97
2023-04-28T16:06:27.280Z,12.93
2023-04-28T16:08:54.263Z,12.82
2023-04-28T16:11:21.381Z,12.82
2023-04-28T16:13:59.480Z,12.71
2023-04-28T16:16:28.410Z,12.82
2023-04-28T16:18:55.948Z,12.78
2023-04-28T16:21:22.527Z,12.74
2023-04-28T16:23:51.812Z,12.63
2023-04-28T16:26:18.634Z,12.61
2023-04-28T16:28:45.243Z,12.56
2023-04-28T16:31:12.299Z,12.51
2023-04-28T16:33:39.332Z,12.35
2023-04-28T16:36:06.075Z,12.23
2023-04-28T16:38:32.681Z,12.19
2023-04-28T16:40:59.601Z,12.15
2023-04-28T16:43:26.381Z,12.13
2023-04-28T16:45:53.187Z,12.14
2023-04-28T16:48:20.973Z,12.17
2023-04-28T16:50:47.640Z,12.09
2023-04-28T16:53:15.520Z,12.07
2023-04-28T16:55:42.085Z,12.06
2023-04-28T16:58:08.823Z,12.04
2023-04-28T17:00:36.123Z,12.01
2023-04-28T17:03:02.872Z,11.97
2023-04-28T17:05:32.103Z,11.96
2023-04-28T17:07:58.898Z,11.95
2023-04-28T17:10:26.073Z,11.95
2023-04-28T17:12:52.787Z,11.92
2023-04-28T17:15:19.710Z,11.92
2023-04-28T17:17:50.228Z,11.94
2023-04-28T17:20:19.827Z,12.00
2023-04-28T17:22:47.097Z,12.16
2023-04-28T17:25:13.739Z,12.10
2023-04-28T17:27:40.384Z,12.01
2023-04-28T17:30:11.264Z,12.06
2023-04-28T17:32:38.132Z,12.00
2023-04-28T17:35:05.957Z,11.97
2023-04-28T17:37:34.108Z,11.88
2023-04-28T17:40:01.855Z,12.05
2023-04-28T17:42:34.174Z,12.02
2023-04-28T17:45:01.246Z,11.92
2023-04-28T17:47:27.908Z,12.02
2023-04-28T17:49:54.607Z,12.01
2023-04-28T17:52:21.214Z,12.01
2023-04-28T17:54:47.983Z,11.81
2023-04-28T17:57:14.888Z,11.58
2023-04-28T17:59:42.578Z,11.47
2023-04-28T18:02:10.429Z,11.32
2023-04-28T18:04:37.907Z,11.23
2023-04-28T18:07:04.447Z,11.15
2023-04-28T18:09:31.958Z,11.15
2023-04-28T18:11:58.600Z,11.10
2023-04-28T18:14:25.788Z,11.09
2023-04-28T18:16:52.479Z,11.09
2023-04-28T18:19:19.016Z,11.06
2023-04-28T18:21:45.802Z,10.95
2023-04-28T18:24:12.395Z,11.05
2023-04-28T18:26:39.101Z,11.07
2023-04-28T18:29:05.937Z,11.16
2023-04-28T18:31:32.633Z,11.21
2023-04-28T18:33:59.604Z,11.07
2023-04-28T18:36:26.393Z,11.03
2023-04-28T18:38:53.047Z,10.94
2023-04-28T18:41:19.735Z,10.92
2023-04-28T18:43:46.512Z,10.96
2023-04-28T18:46:13.705Z,10.98
2023-04-28T18:48:40.498Z,10.86
2023-04-28T18:51:07.219Z,10.87
2023-04-28T18:53:33.978Z,10.82
2023-04-28T18:56:00.626Z,10.85
2023-04-28T18:58:27.915Z,10.81
2023-04-28T19:00:55.074Z,10.81
2023-04-28T19:03:22.297Z,10.82
2023-04-28T19:05:49.133Z,10.80
2023-04-28T19:08:15.678Z,10.81
2023-04-28T19:10:42.373Z,10.80
2023-04-28T19:13:09.071Z,10.84
2023-04-28T19:15:35.895Z,10.81
2023-04-28T19:18:04.767Z,10.83
2023-04-28T19:20:31.429Z,10.85
2023-04-28T19:23:01.334Z,10.85
2023-04-28T19:25:30.736Z,10.93
2023-04-28T19:27:57.607Z,10.90
2023-04-28T19:30:24.331Z,10.93
2023-04-28T19:32:50.934Z,10.88
2023-04-28T19:35:17.575Z,10.83
2023-04-28T19:37:44.467Z,10.82
2023-04-28T19:40:11.693Z,10.69
2023-04-28T19:42:38.657Z,10.61
2023-04-28T19:45:05.825Z,10.62
2023-04-28T19:47:36.772Z,10.66
2023-04-28T19:50:04.939Z,10.56
2023-04-28T19:52:31.505Z,10.47
2023-04-28T19:54:58.238Z,10.45
2023-04-28T19:57:24.991Z,10.34
2023-04-28T19:59:51.841Z,10.31
2023-04-28T20:02:20.812Z,10.32
2023-04-28T20:04:48.989Z,10.28
2023-04-28T20:07:15.653Z,10.22
2023-04-28T20:09:42.173Z,10.21
2023-04-28T20:12:09.266Z,10.21
2023-04-28T20:14:37.158Z,10.17
2023-04-28T20:17:04.883Z,10.24
2023-04-28T20:19:31.673Z,10.19
2023-04-28T20:21:58.258Z,10.17
2023-04-28T20:24:25.022Z,10.23
2023-04-28T20:26:54.126Z,10.22
2023-04-28T20:29:20.766Z,10.25
2023-04-28T20:31:47.587Z,10.17
2023-04-28T20:34:14.512Z,10.18
2023-04-28T20:36:42.840Z,10.20
2023-04-28T20:39:11.254Z,10.18
2023-04-28T20:41:40.914Z,10.17
2023-04-28T20:44:07.932Z,10.19
2023-04-28T20:46:35.469Z,10.16
2023-04-28T20:49:02.887Z,10.14
2023-04-28T20:51:29.998Z,10.12
2023-04-28T20:53:57.612Z,10.07
2023-04-28T20:56:24.276Z,10.15
2023-04-28T20:58:51.265Z,10.12
2023-04-28T21:01:17.967Z,10.11
2023-04-28T21:03:44.902Z,10.18
2023-04-28T21:06:11.675Z,10.21
2023-04-28T21:08:38.683Z,10.23
2023-04-28T21:11:11.868Z,10.14
2023-04-28T21:13:38.793Z,10.12
2023-04-28T21:16:06.037Z,10.10
2023-04-28T21:18:32.651Z,10.07
2023-04-28T21:20:59.206Z,10.16
2023-04-28T21:23:25.806Z,10.14
2023-04-28T21:25:52.538Z,10.14
2023-04-28T21:28:19.227Z,10.09
2023-04-28T21:30:45.948Z,10.09
2023-04-28T21:33:12.730Z,10.12
2023-04-28T21:35:39.257Z,10.10
2023-04-28T21:38:05.844Z,10.06
2023-04-28T21:40:32.694Z,10.05
2023-04-28T21:42:59.363Z,9.97
2023-04-28T21:45:26.400Z,10.05
2023-04-28T21:47:53.377Z,10.10
2023-04-28T21:50:19.894Z,9.94
2023-04-28T21:52:46.669Z,9.95
2023-04-28T21:55:13.302Z,9.92
2023-04-28T21:57:39.828Z,10.00
2023-04-28T22:00:10.797Z,9.94
2023-04-28T22:02:41.961Z,9.90
2023-04-28T22:05:09.788Z,9.85
2023-04-28T22:07:36.404Z,9.81
2023-04-28T22:10:03.193Z,9.92
2023-04-28T22:12:29.976Z,9.90
2023-04-28T22:14:56.879Z,9.90
2023-04-28T22:17:23.838Z,9.94
2023-04-28T22:19:50.615Z,9.90
2023-04-28T22:22:17.755Z,9.86
2023-04-28T22:24:44.279Z,9.89
2023-04-28T22:27:11.185Z,9.84
2023-04-28T22:29:37.762Z,9.76
2023-04-28T22:32:04.613Z,9.72
2023-04-28T22:34:31.467Z,9.74
2023-04-28T22:36:58.052Z,9.74
2023-04-28T22:39:25.268Z,9.74
2023-04-28T22:41:52.376Z,9.70
2023-04-28T22:44:19.033Z,9.65
2023-04-28T22:46:46.334Z,9.62
2023-04-28T22:49:13.040Z,9.73
2023-04-28T22:51:39.866Z,9.66
2023-04-28T22:54:06.400Z,9.58
2023-04-28T22:56:32.932Z,9.56
2023-04-28T22:58:59.691Z,9.54
2023-04-28T23:01:26.390Z,9.49
2023-04-28T23:03:53.503Z,9.48
2023-04-28T23:06:20.126Z,9.50
2023-04-28T23:08:46.808Z,9.44
2023-04-28T23:11:13.342Z,9.42
2023-04-28T23:13:39.868Z,9.29
2023-04-28T23:16:06.970Z,9.33
2023-04-28T23:18:33.564Z,9.38
2023-04-28T23:21:00.212Z,9.39
2023-04-28T23:23:26.856Z,9.34
2023-04-28T23:25:55.514Z,9.32
2023-04-28T23:28:22.513Z,9.26
2023-04-28T23:30:49.135Z,9.21
2023-04-28T23:33:15.697Z,9.22
2023-04-28T23:35:42.618Z,9.23
2023-04-28T23:38:09.281Z,9.20
2023-04-28T23:40:36.005Z,9.23
2023-04-28T23:43:03.039Z,9.23
2023-04-28T23:45:30.537Z,9.24
2023-04-28T23:47:57.267Z,9.25
2023-04-28T23:50:24.035Z,9.25
2023-04-28T23:52:50.717Z,9.29
2023-04-28T23:55:17.368Z,9.33
2023-04-28T23:57:43.889Z,9.36
